createdAt,value
2023-04-02T00:01:48.779Z,100074.80
2023-04-02T00:04:26.654Z,100073.16
2023-04-02T00:07:17.065Z,100074.02
2023-04-02T00:09:45.719Z,100078.77
2023-04-02T00:12:19.458Z,100078.99
2023-04-02T00:14:51.775Z,100087.96
2023-04-02T00:17:23.130Z,100089.67
2023-04-02T00:19:55.066Z,100088.66
2023-04-02T00:22:31.900Z,100083.90
2023-04-02T00:25:03.153Z,100086.48
2023-04-02T00:27:32.773Z,100082.04
2023-04-02T00:30:01.801Z,100081.42
2023-04-02T00:32:32.504Z,100078.38
2023-04-02T00:35:01.439Z,100078.54
2023-04-02T00:37:39.276Z,100078.23
2023-04-02T00:40:15.583Z,100080.64
2023-04-02T00:42:44.984Z,100083.05
2023-04-02T00:45:22.942Z,100080.95
2023-04-02T00:47:52.088Z,100087.25
2023-04-02T00:50:25.703Z,100085.16
2023-04-02T00:52:55.008Z,100083.60
2023-04-02T00:55:39.603Z,100086.71
2023-04-02T00:58:26.972Z,100082.36
2023-04-02T01:00:59.298Z,100084.30
2023-04-02T01:03:36.587Z,100081.50
2023-04-02T01:06:15.702Z,100085.78
2023-04-02T01:08:50.969Z,100082.36
2023-04-02T01:11:47.057Z,100086.23
2023-04-02T01:14:53.831Z,100084.45
2023-04-02T01:17:37.639Z,100083.44
2023-04-02T01:20:22.809Z,100083.84
2023-04-02T01:23:08.287Z,100086.48
2023-04-02T01:25:40.604Z,100080.88
2023-04-02T01:28:31.091Z,100081.73
2023-04-02T01:30:59.892Z,100084.70
2023-04-02T01:33:32.973Z,100080.88
2023-04-02T01:36:10.681Z,100076.58
2023-04-02T01:38:43.652Z,100077.52
2023-04-02T01:41:14.498Z,100083.61
2023-04-02T01:43:47.794Z,100082.19
2023-04-02T01:46:27.059Z,100080.25
2023-04-02T01:48:57.176Z,100081.19
2023-04-02T01:51:31.654Z,100080.25
2023-04-02T01:54:02.781Z,100085.55
2023-04-02T01:56:32.568Z,100084.55
2023-04-02T01:59:04.039Z,100087.81
2023-04-02T02:01:37.108Z,100087.96
2023-04-02T02:04:06.149Z,100086.38
2023-04-02T02:06:34.833Z,100087.55
2023-04-02T02:09:05.542Z,100088.58
2023-04-02T02:11:36.595Z,100086.71
2023-04-02T02:14:25.022Z,100088.80
2023-04-02T02:16:56.928Z,100090.92
2023-04-02T02:19:36.492Z,100085.16
2023-04-02T02:22:19.409Z,100088.28
2023-04-02T02:24:48.012Z,100092.87
2023-04-02T02:27:26.128Z,100095.13
2023-04-02T02:30:22.092Z,100094.20
2023-04-02T02:32:57.558Z,100092.79
2023-04-02T02:35:37.802Z,100093.17
2023-04-02T02:38:25.927Z,100089.44
2023-04-02T02:40:58.366Z,100093.34
2023-04-02T02:43:26.890Z,100089.28
2023-04-02T02:45:55.739Z,100085.15
2023-04-02T02:48:30.692Z,100088.43
2023-04-02T02:50:59.557Z,100094.03
2023-04-02T02:53:28.154Z,100098.72
2023-04-02T02:55:58.972Z,100096.53
2023-04-02T02:58:32.211Z,100102.92
2023-04-02T03:01:13.592Z,100103.55
2023-04-02T03:03:45.037Z,100104.73
2023-04-02T03:06:16.975Z,100107.36
2023-04-02T03:09:02.835Z,100105.11
2023-04-02T03:11:41.183Z,100110.41
2023-04-02T03:14:47.373Z,100107.90
2023-04-02T03:17:34.711Z,100113.83
2023-04-02T03:20:36.011Z,100119.99
2023-04-02T03:23:13.716Z,100112.19
2023-04-02T03:26:02.496Z,100115.95
2023-04-02T03:28:32.938Z,100117.89
2023-04-02T03:31:38.452Z,100117.58
2023-04-02T03:34:26.979Z,100115.71
2023-04-02T03:37:24.197Z,100118.03
2023-04-02T03:40:09.977Z,100113.81
2023-04-02T03:42:46.926Z,100116.39
2023-04-02T03:45:22.200Z,100114.29
2023-04-02T03:48:01.481Z,100112.41
2023-04-02T03:51:07.560Z,100116.16
2023-04-02T03:53:36.378Z,100115.76
2023-04-02T03:56:06.314Z,100114.83
2023-04-02T03:59:00.524Z,100110.55
2023-04-02T04:01:38.923Z,100112.67
2023-04-02T04:04:14.073Z,100114.22
2023-04-02T04:06:43.280Z,100118.98
2023-04-02T04:09:18.477Z,100120.61
2023-04-02T04:11:49.166Z,100116.31
2023-04-02T04:14:29.312Z,100116.64
2023-04-02T04:17:34.914Z,100121.85
2023-04-02T04:20:22.117Z,100119.36
2023-04-02T04:22:56.119Z,100119.46
2023-04-02T04:25:30.843Z,100123.64
2023-04-02T04:28:25.569Z,100122.64
2023-04-02T04:31:09.582Z,100123.54
2023-04-02T04:33:43.849Z,100124.48
2023-04-02T04:36:19.458Z,100128.49
2023-04-02T04:38:55.423Z,100131.60
2023-04-02T04:41:31.170Z,100133.30
2023-04-02T04:44:23.201Z,100137.59
2023-04-02T04:47:08.606Z,100141.08
2023-04-02T04:50:08.425Z,100137.61
2023-04-02T04:52:40.594Z,100136.73
2023-04-02T04:55:27.322Z,100136.72
2023-04-02T04:58:01.180Z,100136.00
2023-04-02T05:00:39.770Z,100137.75
2023-04-02T05:03:17.505Z,100142.42
2023-04-02T05:05:46.629Z,100145.88
2023-04-02T05:08:36.645Z,100145.94
2023-04-02T05:11:08.515Z,100148.58
2023-04-02T05:13:54.876Z,100150.05
2023-04-02T05:16:27.509Z,100150.10
2023-04-02T05:19:17.537Z,100147.84
2023-04-02T05:21:56.000Z,100145.40
2023-04-02T05:24:37.133Z,100146.36
2023-04-02T05:27:13.583Z,100151.25
2023-04-02T05:29:43.108Z,100149.63
2023-04-02T05:32:28.553Z,100147.41
2023-04-02T05:34:57.696Z,100142.25
2023-04-02T05:37:28.620Z,100139.66
2023-04-02T05:39:59.083Z,100141.94
2023-04-02T05:42:31.383Z,100141.02
2023-04-02T05:45:28.865Z,100139.45
2023-04-02T05:48:02.204Z,100138.77
2023-04-02T05:50:43.270Z,100139.95
2023-04-02T05:53:28.113Z,100138.63
2023-04-02T05:56:11.280Z,100139.94
2023-04-02T05:58:45.778Z,100137.39
2023-04-02T06:01:47.860Z,100134.34
2023-04-02T06:04:37.108Z,100139.60
2023-04-02T06:07:21.135Z,100139.73
2023-04-02T06:10:15.648Z,100145.83
2023-04-02T06:12:49.997Z,100143.65
2023-04-02T06:15:23.054Z,100142.21
2023-04-02T06:18:00.208Z,100136.65
2023-04-02T06:20:29.118Z,100141.11
2023-04-02T06:23:01.071Z,100127.30
2023-04-02T06:25:35.845Z,100126.46
2023-04-02T06:28:05.899Z,100129.09
2023-04-02T06:30:37.359Z,100126.82
2023-04-02T06:33:14.249Z,100127.77
2023-04-02T06:35:48.960Z,100128.73
2023-04-02T06:38:26.645Z,100128.52
2023-04-02T06:41:00.516Z,100128.10
2023-04-02T06:43:52.275Z,100127.50
2023-04-02T06:46:51.111Z,100128.70
2023-04-02T06:49:21.212Z,100132.77
2023-04-02T06:51:52.241Z,100129.95
2023-04-02T06:54:21.245Z,100127.45
2023-04-02T06:56:56.581Z,100128.95
2023-04-02T06:59:32.663Z,100131.18
2023-04-02T07:02:06.910Z,100128.83
2023-04-02T07:04:35.859Z,100125.06
2023-04-02T07:07:05.042Z,100136.57
2023-04-02T07:09:40.856Z,100129.52
2023-04-02T07:12:13.698Z,100133.59
2023-04-02T07:14:49.487Z,100133.96
2023-04-02T07:17:18.210Z,100128.70
2023-04-02T07:19:49.836Z,100126.55
2023-04-02T07:22:20.802Z,100128.78
2023-04-02T07:24:56.568Z,100122.66
2023-04-02T07:27:28.230Z,100126.19
2023-04-02T07:29:56.981Z,100124.85
2023-04-02T07:32:25.545Z,100123.55
2023-04-02T07:34:54.030Z,100124.20
2023-04-02T07:37:22.928Z,100122.73
2023-04-02T07:39:54.043Z,100116.78
2023-04-02T07:42:22.674Z,100113.62
2023-04-02T07:44:51.487Z,100119.71
2023-04-02T07:47:20.227Z,100118.08
2023-04-02T07:49:54.785Z,100115.40
2023-04-02T07:52:23.876Z,100113.02
2023-04-02T07:54:52.466Z,100117.27
2023-04-02T07:57:20.952Z,100115.06
2023-04-02T07:59:49.677Z,100123.64
2023-04-02T08:02:21.333Z,100123.63
2023-04-02T08:04:51.422Z,100119.05
2023-04-02T08:07:20.885Z,100123.97
2023-04-02T08:09:49.494Z,100126.61
2023-04-02T08:12:24.532Z,100119.03
2023-04-02T08:14:53.471Z,100115.77
2023-04-02T08:17:22.554Z,100112.80
2023-04-02T08:19:54.947Z,100109.67
2023-04-02T08:22:24.082Z,100106.48
2023-04-02T08:24:52.703Z,100107.66
2023-04-02T08:27:21.457Z,100104.14
2023-04-02T08:29:50.001Z,100106.08
2023-04-02T08:32:18.748Z,100103.45
2023-04-02T08:34:47.313Z,100106.23
2023-04-02T08:37:22.683Z,100101.08
2023-04-02T08:39:51.400Z,100100.89
2023-04-02T08:42:59.689Z,100103.92
2023-04-02T08:45:37.453Z,100103.13
2023-04-02T08:48:06.686Z,100101.08
2023-04-02T08:50:37.663Z,100095.15
2023-04-02T08:53:08.649Z,100096.84
2023-04-02T08:55:44.132Z,100102.04
2023-04-02T08:58:49.984Z,100102.14
2023-04-02T09:01:35.190Z,100101.39
2023-04-02T09:04:06.269Z,100097.05
2023-04-02T09:06:38.901Z,100102.48
2023-04-02T09:09:09.280Z,100098.05
2023-04-02T09:11:48.648Z,100100.34
2023-04-02T09:14:20.366Z,100099.47
2023-04-02T09:16:54.181Z,100101.20
2023-04-02T09:19:24.605Z,100098.73
2023-04-02T09:22:00.166Z,100097.85
2023-04-02T09:24:28.714Z,100099.23
2023-04-02T09:26:59.549Z,100098.13
2023-04-02T09:29:43.492Z,100093.08
2023-04-02T09:32:33.526Z,100094.58
2023-04-02T09:35:22.388Z,100095.16
2023-04-02T09:38:24.280Z,100094.27
2023-04-02T09:41:01.845Z,100093.78
2023-04-02T09:43:38.251Z,100094.19
2023-04-02T09:46:22.081Z,100090.10
2023-04-02T09:48:50.666Z,100090.64
2023-04-02T09:51:23.940Z,100087.17
2023-04-02T09:54:08.468Z,100090.03
2023-04-02T09:56:38.552Z,100089.63
2023-04-02T09:59:07.409Z,100090.94
2023-04-02T10:01:39.589Z,100096.67
2023-04-02T10:04:30.089Z,100097.06
2023-04-02T10:06:59.286Z,100089.96
2023-04-02T10:09:30.874Z,100099.45
2023-04-02T10:12:00.352Z,100099.39
2023-04-02T10:14:37.531Z,100096.39
2023-04-02T10:17:13.545Z,100097.98
2023-04-02T10:19:50.684Z,100096.27
2023-04-02T10:22:28.044Z,100097.16
2023-04-02T10:24:58.169Z,100098.61
2023-04-02T10:27:43.000Z,100097.31
2023-04-02T10:30:28.251Z,100093.71
2023-04-02T10:33:05.880Z,100092.02
2023-04-02T10:35:43.368Z,100093.33
2023-04-02T10:38:33.444Z,100086.38
2023-04-02T10:41:35.820Z,100083.36
2023-04-02T10:44:53.802Z,100083.38
2023-04-02T10:47:42.800Z,100085.66
2023-04-02T10:50:24.609Z,100088.21
2023-04-02T10:53:00.366Z,100084.63
2023-04-02T10:55:39.957Z,100088.06
2023-04-02T10:58:14.379Z,100087.89
2023-04-02T11:00:42.955Z,100087.04
2023-04-02T11:03:24.597Z,100085.31
2023-04-02T11:05:57.069Z,100085.64
2023-04-02T11:08:27.585Z,100084.84
2023-04-02T11:11:08.294Z,100085.66
2023-04-02T11:13:59.765Z,100087.14
2023-04-02T11:16:28.389Z,100086.61
2023-04-02T11:19:16.163Z,100083.67
2023-04-02T11:21:58.693Z,100080.16
2023-04-02T11:24:37.447Z,100077.08
2023-04-02T11:27:17.752Z,100082.33
2023-04-02T11:30:06.359Z,100074.77
2023-04-02T11:32:42.752Z,100074.03
2023-04-02T11:35:25.425Z,100067.97
2023-04-02T11:37:55.804Z,100066.55
2023-04-02T11:40:46.226Z,100063.23
2023-04-02T11:43:33.803Z,100061.15
2023-04-02T11:46:29.503Z,100061.35
2023-04-02T11:49:36.538Z,100058.77
2023-04-02T11:52:12.018Z,100059.80
2023-04-02T11:54:41.402Z,100059.25
2023-04-02T11:57:31.211Z,100059.07
2023-04-02T12:00:28.981Z,100057.65
2023-04-02T12:03:17.383Z,100058.34
2023-04-02T12:05:54.868Z,100056.98
2023-04-02T12:08:54.268Z,100051.35
2023-04-02T12:11:52.332Z,100050.11
2023-04-02T12:14:41.447Z,100049.33
2023-04-02T12:17:31.991Z,100049.45
2023-04-02T12:20:10.219Z,100051.29
2023-04-02T12:22:40.871Z,100050.05
2023-04-02T12:25:31.893Z,100046.02
2023-04-02T12:28:18.084Z,100049.60
2023-04-02T12:30:47.360Z,100044.61
2023-04-02T12:33:21.180Z,100042.20
2023-04-02T12:35:57.594Z,100040.20
2023-04-02T12:38:52.685Z,100040.63
2023-04-02T12:41:30.534Z,100039.45
2023-04-02T12:44:00.274Z,100039.23
2023-04-02T12:46:30.839Z,100040.14
2023-04-02T12:49:21.302Z,100042.22
2023-04-02T12:51:50.001Z,100040.92
2023-04-02T12:54:20.808Z,100039.88
2023-04-02T12:56:49.845Z,100038.63
2023-04-02T12:59:32.041Z,100042.70
2023-04-02T13:02:02.698Z,100040.65
2023-04-02T13:04:32.420Z,100041.23
2023-04-02T13:07:02.320Z,100045.48
2023-04-02T13:09:36.053Z,100053.14
2023-04-02T13:12:32.963Z,100048.19
2023-04-02T13:15:03.434Z,100057.73
2023-04-02T13:17:42.615Z,100059.48
2023-04-02T13:20:54.690Z,100064.98
2023-04-02T13:23:25.128Z,100067.57
2023-04-02T13:25:54.188Z,100062.29
2023-04-02T13:28:22.815Z,100065.30
2023-04-02T13:30:54.521Z,100068.04
2023-04-02T13:33:24.423Z,100067.98
2023-04-02T13:35:52.857Z,100069.85
2023-04-02T13:38:22.834Z,100082.39
2023-04-02T13:40:51.942Z,100092.05
2023-04-02T13:43:23.585Z,100099.39
2023-04-02T13:45:53.427Z,100097.33
2023-04-02T13:48:26.469Z,100125.81
2023-04-02T13:50:54.945Z,100099.35
2023-04-02T13:53:30.013Z,100110.50
2023-04-02T13:56:01.036Z,100107.84
2023-04-02T13:58:30.821Z,100107.63
2023-04-02T14:00:59.367Z,100114.38
2023-04-02T14:03:29.477Z,100112.24
2023-04-02T14:06:12.497Z,100106.74
2023-04-02T14:08:52.312Z,100104.39
2023-04-02T14:11:37.018Z,100102.73
2023-04-02T14:14:18.012Z,100107.30
2023-04-02T14:16:59.762Z,100109.91
2023-04-02T14:19:45.712Z,100105.14
2023-04-02T14:22:41.733Z,100101.96
2023-04-02T14:25:44.471Z,100107.24
2023-04-02T14:28:39.372Z,100108.18
2023-04-02T14:31:20.789Z,100107.80
2023-04-02T14:34:16.425Z,100108.66
2023-04-02T14:37:07.088Z,100110.20
2023-04-02T14:39:56.402Z,100107.89
2023-04-02T14:42:31.547Z,100113.36
2023-04-02T14:45:08.911Z,100109.20
2023-04-02T14:47:41.556Z,100108.70
2023-04-02T14:50:18.015Z,100113.02
2023-04-02T14:52:49.580Z,100112.56
2023-04-02T14:55:27.764Z,100118.31
2023-04-02T14:57:56.919Z,100102.06
2023-04-02T15:00:36.169Z,100101.31
2023-04-02T15:03:55.885Z,100103.22
2023-04-02T15:06:27.459Z,100107.69
2023-04-02T15:09:09.793Z,100107.07
2023-04-02T15:11:40.680Z,100109.20
2023-04-02T15:14:21.697Z,100107.88
2023-04-02T15:16:54.524Z,100113.65
2023-04-02T15:19:23.165Z,100114.24
2023-04-02T15:22:22.987Z,100114.09
2023-04-02T15:24:54.582Z,100111.80
2023-04-02T15:27:33.108Z,100110.34
2023-04-02T15:30:24.843Z,100104.91
2023-04-02T15:32:55.809Z,100103.52
2023-04-02T15:35:43.526Z,100106.02
2023-04-02T15:38:26.788Z,100103.02
2023-04-02T15:40:58.944Z,100101.70
2023-04-02T15:43:54.866Z,100103.41
2023-04-02T15:46:51.145Z,100099.96
2023-04-02T15:49:34.029Z,100093.70
2023-04-02T15:52:16.365Z,100092.42
2023-04-02T15:55:09.961Z,100085.27
2023-04-02T15:58:16.080Z,100083.55
2023-04-02T16:01:04.435Z,100085.23
2023-04-02T16:03:38.768Z,100086.34
2023-04-02T16:20:46.898Z,100078.60
2023-04-02T16:23:19.145Z,100080.65
2023-04-02T16:26:03.065Z,100082.61
2023-04-02T16:28:36.071Z,100080.95
2023-04-02T16:31:51.447Z,100083.27
2023-04-02T16:34:28.238Z,100086.39
2023-04-02T16:37:12.576Z,100091.02
2023-04-02T16:39:47.101Z,100095.48
2023-04-02T16:42:18.752Z,100099.76
2023-04-02T16:45:04.970Z,100100.30
2023-04-02T16:47:47.392Z,100097.16
2023-04-02T16:50:45.261Z,100092.20
2023-04-02T16:53:18.610Z,100081.39
2023-04-02T16:55:53.382Z,100082.89
2023-04-02T16:58:48.637Z,100077.58
2023-04-02T17:01:28.461Z,100073.91
2023-04-02T17:04:13.872Z,100068.41
2023-04-02T17:06:44.097Z,100070.11
2023-04-02T17:09:22.621Z,100065.42
2023-04-02T17:12:02.469Z,100061.98
2023-04-02T17:14:32.902Z,100057.48
2023-04-02T17:17:02.566Z,100053.31
2023-04-02T17:19:31.736Z,100053.90
2023-04-02T17:22:02.352Z,100055.48
2023-04-02T17:24:37.675Z,100058.11
2023-04-02T17:27:06.380Z,100061.92
2023-04-02T17:29:36.898Z,100063.40
2023-04-02T17:32:07.311Z,100061.86
2023-04-02T17:34:36.379Z,100062.89
2023-04-02T17:37:23.227Z,100064.25
2023-04-02T17:39:54.443Z,100075.04
2023-04-02T17:42:58.634Z,100072.06
2023-04-02T17:45:48.250Z,100064.07
2023-04-02T17:48:22.328Z,100061.85
2023-04-02T17:50:59.232Z,100054.55
2023-04-02T17:53:41.387Z,100050.67
2023-04-02T17:56:57.379Z,100043.27
2023-04-02T17:59:44.780Z,100037.42
2023-04-02T18:02:31.710Z,100037.21
2023-04-02T18:05:12.492Z,100036.77
2023-04-02T18:08:05.452Z,100034.73
2023-04-02T18:10:40.561Z,100031.02
2023-04-02T18:13:24.675Z,100025.52
2023-04-02T18:16:19.894Z,100027.41
2023-04-02T18:19:17.234Z,100026.95
2023-04-02T18:21:54.282Z,100019.16
2023-04-02T18:24:33.916Z,100014.89
2023-04-02T18:27:21.358Z,100012.95
2023-04-02T18:30:09.484Z,100005.33
2023-04-02T18:33:06.296Z,99999.41
2023-04-02T18:35:44.641Z,99997.88
2023-04-02T18:38:38.942Z,99998.79
2023-04-02T18:41:32.700Z,99992.07
2023-04-02T18:44:12.714Z,99996.63
2023-04-02T18:46:44.562Z,99993.58
2023-04-02T18:49:29.628Z,99987.99
2023-04-02T18:52:02.408Z,99979.77
2023-04-02T18:54:51.975Z,75546.27
2023-04-02T18:57:22.677Z,80836.15
2023-04-02T19:00:00.541Z,99978.10
2023-04-02T19:02:47.743Z,99975.84
2023-04-02T19:05:22.661Z,99972.77
2023-04-02T19:07:54.862Z,110554.21
2023-04-02T19:10:34.024Z,56402.20
2023-04-02T19:13:17.670Z,25284.46
2023-04-02T19:15:49.813Z,-1.00
2023-04-02T19:18:41.686Z,-1.00
2023-04-02T19:21:17.889Z,-1.00
2023-04-02T19:23:54.138Z,-1.00
2023-04-02T19:26:28.310Z,-1.00
2023-04-02T19:29:31.979Z,-1.00
2023-04-02T19:32:13.624Z,-1.00
2023-04-02T19:35:08.243Z,-1.00
2023-04-02T19:37:38.518Z,-1.00
2023-04-02T19:40:11.178Z,-1.00
2023-04-02T19:42:46.717Z,-1.00
2023-04-02T19:45:28.417Z,-1.00
2023-04-02T19:47:57.517Z,-1.00
2023-04-02T19:50:26.367Z,-1.00
2023-04-02T19:52:54.859Z,-1.00
2023-04-02T19:55:23.155Z,-1.00
2023-04-02T19:57:54.635Z,-1.00
2023-04-02T20:00:26.434Z,-1.00
2023-04-02T20:02:55.545Z,-1.00
2023-04-02T20:05:24.205Z,-1.00
2023-04-02T20:07:55.028Z,-1.00
2023-04-02T20:10:23.584Z,-1.00
2023-04-02T20:12:58.895Z,-1.00
2023-04-02T20:22:22.085Z,99957.83
2023-04-02T20:24:50.844Z,99941.67
2023-04-02T20:27:21.382Z,99934.46
2023-04-02T20:29:50.356Z,99926.45
2023-04-02T20:32:19.096Z,99923.33
2023-04-02T20:34:48.466Z,99922.98
2023-04-02T20:37:17.227Z,99913.52
2023-04-02T20:39:48.588Z,99916.37
2023-04-02T20:42:17.194Z,99915.05
2023-04-02T20:44:47.356Z,99909.27
2023-04-02T20:47:16.757Z,99912.70
2023-04-02T20:49:48.369Z,99908.11
2023-04-02T20:52:18.115Z,99909.80
2023-04-02T20:54:46.796Z,99908.85
2023-04-02T20:57:15.296Z,99906.54
2023-04-02T20:59:43.912Z,99910.31
2023-04-02T21:02:16.459Z,99908.00
2023-04-02T21:04:44.900Z,99909.41
2023-04-02T21:07:13.551Z,99904.10
2023-04-02T21:09:41.925Z,99902.23
2023-04-02T21:12:11.921Z,99904.73
2023-04-02T21:14:41.867Z,99900.98
2023-04-02T21:17:10.548Z,99897.49
2023-04-02T21:19:39.243Z,99889.60
2023-04-02T21:22:07.756Z,99891.66
2023-04-02T21:24:36.370Z,99895.15
2023-04-02T21:27:05.620Z,99896.77
2023-04-02T21:29:36.820Z,99892.58
2023-04-02T21:32:18.097Z,99886.92
2023-04-02T21:34:50.072Z,99879.64
2023-04-02T21:37:19.462Z,99875.75
2023-04-02T21:39:48.880Z,99875.95
2023-04-02T21:42:18.861Z,99876.52
2023-04-02T21:44:47.327Z,99877.17
2023-04-02T21:47:15.987Z,99879.11
2023-04-02T21:49:44.549Z,99872.11
2023-04-02T21:52:15.693Z,99870.63
2023-04-02T21:54:48.398Z,99868.33
2023-04-02T21:57:19.129Z,99872.30
2023-04-02T21:59:47.988Z,99873.13
2023-04-02T22:02:16.429Z,99871.11
2023-04-02T22:04:45.417Z,99870.83
2023-04-02T22:07:14.689Z,99870.44
2023-04-02T22:09:43.566Z,99866.55
2023-04-02T22:12:15.021Z,99866.19
2023-04-02T22:14:43.892Z,99864.08
2023-04-02T22:17:16.390Z,99864.56
2023-04-02T22:19:45.836Z,99863.69
2023-04-02T22:22:14.294Z,99864.18
2023-04-02T22:24:42.995Z,99862.81
2023-04-02T22:27:13.044Z,99859.04
2023-04-02T22:29:41.401Z,99851.50
2023-04-02T22:32:09.613Z,99854.08
2023-04-02T22:34:45.698Z,99847.65
2023-04-02T22:37:14.295Z,99844.13
2023-04-02T22:39:43.121Z,99844.16
2023-04-02T22:42:11.588Z,99841.27
2023-04-02T22:44:40.332Z,99835.65
2023-04-02T22:47:08.780Z,99835.42
2023-04-02T22:49:37.529Z,99829.06
2023-04-02T22:52:07.133Z,99825.44
2023-04-02T22:54:35.568Z,99816.77
2023-04-02T22:57:05.578Z,99815.88
2023-04-02T22:59:36.508Z,99811.31
2023-04-02T23:02:05.634Z,99807.79
2023-04-02T23:04:36.366Z,99805.13
2023-04-02T23:07:05.596Z,99799.54
2023-04-02T23:09:33.936Z,99789.66
2023-04-02T23:12:07.385Z,99790.57
2023-04-02T23:14:36.610Z,99788.60
2023-04-02T23:17:05.513Z,99787.15
2023-04-02T23:19:34.497Z,99786.48
2023-04-02T23:22:02.879Z,99784.07
2023-04-02T23:24:36.392Z,99779.27
2023-04-02T23:27:04.857Z,99774.80
2023-04-02T23:29:33.260Z,99779.36
2023-04-02T23:32:01.935Z,99776.78
2023-04-02T23:34:31.892Z,99775.00
2023-04-02T23:37:00.630Z,99774.87
2023-04-02T23:39:29.854Z,99770.66
2023-04-02T23:41:59.333Z,99769.98
2023-04-02T23:44:29.297Z,99764.84
2023-04-02T23:46:57.639Z,99760.65
2023-04-02T23:49:26.493Z,99757.08
2023-04-02T23:51:55.075Z,99749.98
2023-04-02T23:54:23.704Z,99749.18
2023-04-02T23:56:52.298Z,99742.00
2023-04-02T23:59:20.780Z,99738.64
